Terminal Aerodrome Forecast
Issued by NWS Spokane, WA

Home | Current Version | Previous Version | Text Only | Print | Product List | Glossary On
Versions: 1 2 3 4 5 6 7 8 9 10 11 12 13 14 15 16 17 18 19 20 21 22 23 24 25 26 27 28
651
FTUS46 KOTX 271120
TAFEAT
TAF
KEAT 271120Z 2712/2812 31011KT P6SM FEW080 FEW250
     FM272000 15006KT P6SM FEW100 FEW200
     FM280100 32010G17KT P6SM FEW200
     FM280600 30008KT P6SM FEW250=

USA.gov is the U.S. government's official web portal to all federal, state and local government web resources and services.